createdAt,value
2024-03-15T00:00:44.795Z,100
2024-03-15T00:01:58.104Z,100
2024-03-15T00:03:12.398Z,100
2024-03-15T00:04:26.691Z,100
2024-03-15T00:05:40.984Z,100
2024-03-15T00:06:55.277Z,100
2024-03-15T00:08:08.591Z,100
2024-03-15T00:09:22.884Z,100
2024-03-15T00:10:37.177Z,100
2024-03-15T00:11:51.470Z,100
2024-03-15T00:13:05.743Z,100
2024-03-15T00:14:20.055Z,100
2024-03-15T00:15:34.348Z,100
2024-03-15T00:16:48.641Z,100
2024-03-15T00:18:02.935Z,100
2024-03-15T00:19:17.227Z,100
2024-03-15T00:20:31.520Z,100
2024-03-15T00:21:45.813Z,100
2024-03-15T00:23:00.088Z,100
2024-03-15T00:24:13.415Z,100
2024-03-15T00:25:27.708Z,100
2024-03-15T00:26:42.001Z,100
2024-03-15T00:27:56.294Z,100
2024-03-15T00:29:10.587Z,100
2024-03-15T00:30:24.880Z,100
2024-03-15T00:31:39.173Z,100
2024-03-15T00:32:53.466Z,100
2024-03-15T00:34:07.759Z,100
2024-03-15T00:35:22.027Z,100
2024-03-15T00:36:36.345Z,99.9
2024-03-15T00:37:50.637Z,99.7
2024-03-15T00:39:04.932Z,99.7
2024-03-15T00:40:18.241Z,99.8
2024-03-15T00:41:32.534Z,99.7
2024-03-15T00:42:46.827Z,99.7
2024-03-15T00:44:01.119Z,99.6
2024-03-15T00:45:15.412Z,99.5
2024-03-15T00:46:29.705Z,99.5
2024-03-15T00:47:43.998Z,99.6
2024-03-15T00:48:58.291Z,99.3
2024-03-15T00:50:12.552Z,99.3
2024-03-15T00:51:26.877Z,99.6
2024-03-15T00:52:41.170Z,99.5
2024-03-15T00:53:55.463Z,99.8
2024-03-15T00:55:09.756Z,100
2024-03-15T00:56:23.065Z,100
2024-03-15T00:57:37.333Z,100
2024-03-15T00:58:51.651Z,100
2024-03-15T01:00:05.944Z,100
2024-03-15T01:01:20.237Z,100
2024-03-15T01:02:34.530Z,100
2024-03-15T01:03:48.824Z,100
2024-03-15T01:05:03.117Z,100
2024-03-15T01:06:17.410Z,100
2024-03-15T01:07:31.703Z,100
2024-03-15T01:08:45.996Z,100
2024-03-15T01:10:00.289Z,100
2024-03-15T01:11:14.582Z,100
2024-03-15T01:12:27.891Z,100
2024-03-15T01:13:42.184Z,100
2024-03-15T01:14:56.477Z,100
2024-03-15T01:16:10.770Z,99.7
2024-03-15T01:17:25.063Z,100
2024-03-15T01:18:39.356Z,100
2024-03-15T01:19:53.649Z,100
2024-03-15T01:21:07.942Z,100
2024-03-15T01:22:22.235Z,100
2024-03-15T01:23:36.528Z,100
2024-03-15T01:24:50.821Z,100
2024-03-15T01:26:05.114Z,100
2024-03-15T01:27:19.406Z,100
2024-03-15T01:28:32.715Z,100
2024-03-15T01:29:47.008Z,100
2024-03-15T01:31:01.301Z,100
2024-03-15T01:32:15.594Z,100
2024-03-15T01:33:29.888Z,100
2024-03-15T01:34:44.181Z,100
2024-03-15T01:35:58.474Z,100
2024-03-15T01:37:12.767Z,100
2024-03-15T01:38:27.060Z,100
2024-03-15T01:39:41.353Z,100
2024-03-15T01:40:55.646Z,100
2024-03-15T01:42:09.939Z,100
2024-03-15T01:43:24.232Z,100
2024-03-15T01:44:38.526Z,100
2024-03-15T01:45:51.835Z,100
2024-03-15T01:47:06.128Z,100
2024-03-15T01:48:20.421Z,100
2024-03-15T01:49:34.715Z,100
2024-03-15T01:50:49.008Z,100
2024-03-15T01:52:03.301Z,100
2024-03-15T01:53:17.594Z,100
2024-03-15T01:54:31.889Z,100
2024-03-15T01:55:46.182Z,100
2024-03-15T01:57:00.475Z,100
2024-03-15T01:58:14.768Z,100
2024-03-15T01:59:29.062Z,100
2024-03-15T02:00:43.355Z,100
2024-03-15T02:01:56.665Z,100
2024-03-15T02:03:10.958Z,100
2024-03-15T02:04:25.220Z,100
2024-03-15T02:05:39.545Z,100
2024-03-15T02:06:53.839Z,100
2024-03-15T02:08:08.132Z,100
2024-03-15T02:09:22.425Z,100
2024-03-15T02:10:36.718Z,100
2024-03-15T02:11:51.012Z,100
2024-03-15T02:13:05.305Z,100
2024-03-15T02:14:19.599Z,100
2024-03-15T02:15:33.893Z,100
2024-03-15T02:16:48.186Z,100
2024-03-15T02:18:01.495Z,100
2024-03-15T02:19:15.788Z,100
2024-03-15T02:20:30.081Z,100
2024-03-15T02:21:44.374Z,100
2024-03-15T02:22:58.667Z,100
2024-03-15T02:24:12.960Z,100
2024-03-15T02:25:27.253Z,100
2024-03-15T02:26:41.546Z,100
2024-03-15T02:27:55.839Z,100
2024-03-15T02:29:10.132Z,100
2024-03-15T02:30:24.425Z,100
2024-03-15T02:31:38.718Z,100
2024-03-15T02:32:53.011Z,100
2024-03-15T02:34:06.320Z,100
2024-03-15T02:35:20.613Z,100
2024-03-15T02:36:34.906Z,100
2024-03-15T02:37:49.199Z,100
2024-03-15T02:39:03.492Z,100
2024-03-15T02:40:17.785Z,100
2024-03-15T02:41:32.078Z,100
2024-03-15T02:42:46.371Z,100
2024-03-15T02:44:00.664Z,100
2024-03-15T02:45:14.957Z,100
2024-03-15T02:46:29.250Z,100
2024-03-15T02:47:43.543Z,100
2024-03-15T02:48:57.816Z,100
2024-03-15T02:50:11.145Z,100
2024-03-15T02:51:25.438Z,100
2024-03-15T02:52:39.731Z,100
2024-03-15T02:53:54.024Z,100
2024-03-15T02:55:08.317Z,100
2024-03-15T02:56:22.609Z,100
2024-03-15T02:57:36.902Z,100
2024-03-15T02:58:51.195Z,100
2024-03-15T03:00:05.488Z,100
2024-03-15T03:01:19.781Z,100
2024-03-15T03:02:34.074Z,100
2024-03-15T03:03:48.367Z,100
2024-03-15T03:05:02.660Z,99.9
2024-03-15T03:06:15.969Z,99.8
2024-03-15T03:07:30.262Z,99.7
2024-03-15T03:08:44.555Z,99.5
2024-03-15T03:09:58.848Z,99.3
2024-03-15T03:11:13.115Z,99.2
2024-03-15T03:12:27.434Z,99.1
2024-03-15T03:13:41.727Z,99
2024-03-15T03:14:56.020Z,98.9
2024-03-15T03:16:10.313Z,98.8
2024-03-15T03:17:24.606Z,98.7
2024-03-15T03:18:38.899Z,98.8
2024-03-15T03:19:53.192Z,98.8
2024-03-15T03:21:07.485Z,98.9
2024-03-15T03:22:20.794Z,98.9
2024-03-15T03:23:35.087Z,98.8
2024-03-15T03:24:49.380Z,98.6
2024-03-15T03:26:03.674Z,98.5
2024-03-15T03:27:17.966Z,98.4
2024-03-15T03:28:32.259Z,98.4
2024-03-15T03:29:46.552Z,98.3
2024-03-15T03:31:00.845Z,98.3
2024-03-15T03:32:15.138Z,98.1
2024-03-15T03:33:29.431Z,98.1
2024-03-15T03:34:43.724Z,97.9
2024-03-15T03:35:58.017Z,97.9
2024-03-15T03:37:12.310Z,97.8
2024-03-15T03:38:25.619Z,97.7
2024-03-15T03:39:39.912Z,97.9
2024-03-15T03:40:54.205Z,98
2024-03-15T03:42:08.498Z,98
2024-03-15T03:43:22.791Z,97.9
2024-03-15T03:44:37.084Z,97.9
2024-03-15T03:45:51.377Z,97.9
2024-03-15T03:47:05.670Z,97.8
2024-03-15T03:49:34.255Z,98.2
2024-03-15T03:50:48.548Z,98.4
2024-03-15T03:52:02.841Z,98.3
2024-03-15T03:53:17.134Z,98.3
2024-03-15T03:54:30.443Z,98.3
2024-03-15T03:55:44.736Z,98.2
2024-03-15T03:56:59.028Z,98.3
2024-03-15T03:58:13.321Z,98.3
2024-03-15T03:59:27.614Z,98.3
2024-03-15T04:00:41.907Z,98.2
2024-03-15T04:01:56.200Z,98.1
2024-03-15T04:03:10.493Z,98
2024-03-15T04:04:24.786Z,98
2024-03-15T04:05:39.079Z,97.3
2024-03-15T04:06:53.372Z,97.3
2024-03-15T04:08:07.664Z,97.3
2024-03-15T04:09:21.957Z,96.2
2024-03-15T04:10:35.252Z,96.8
2024-03-15T04:11:49.559Z,97.2
2024-03-15T04:13:03.853Z,97.5
2024-03-15T04:14:18.146Z,98.3
2024-03-15T04:15:32.439Z,98.5
2024-03-15T04:16:45.753Z,98.6
2024-03-15T04:18:00.020Z,98.5
2024-03-15T04:19:14.339Z,98.5
2024-03-15T04:20:28.632Z,98.5
2024-03-15T04:21:42.925Z,98.4
2024-03-15T04:22:57.218Z,98.3
2024-03-15T04:24:11.511Z,98.3
2024-03-15T04:25:25.805Z,98.1
2024-03-15T04:26:40.099Z,98.1
2024-03-15T04:27:54.392Z,98
2024-03-15T04:29:08.685Z,97.9
2024-03-15T04:30:22.977Z,98
2024-03-15T04:31:37.270Z,98
2024-03-15T04:32:50.579Z,98.1
2024-03-15T04:34:04.872Z,98
2024-03-15T04:35:19.165Z,98
2024-03-15T04:36:33.458Z,97.9
2024-03-15T04:37:47.751Z,97.9
2024-03-15T04:39:02.044Z,97.9
2024-03-15T04:40:16.316Z,98
2024-03-15T04:41:30.630Z,97.9
2024-03-15T04:42:44.923Z,98
2024-03-15T04:43:59.216Z,98.1
2024-03-15T04:45:13.508Z,98.2
2024-03-15T04:46:27.802Z,98.2
2024-03-15T04:47:42.095Z,98.2
2024-03-15T04:48:55.404Z,98.3
2024-03-15T04:50:09.696Z,98.3
2024-03-15T04:51:23.989Z,98.2
2024-03-15T04:52:38.282Z,98.2
2024-03-15T04:53:52.576Z,98.2
2024-03-15T04:55:06.869Z,98.2
2024-03-15T04:56:21.108Z,98.2
2024-03-15T04:57:35.401Z,98.1
2024-03-15T04:58:49.651Z,98.1
2024-03-15T05:00:03.890Z,98
2024-03-15T05:01:18.129Z,98
2024-03-15T05:02:32.368Z,97.9
2024-03-15T05:03:46.618Z,97.9
2024-03-15T05:04:59.873Z,98
2024-03-15T05:06:14.112Z,98
2024-03-15T05:07:28.351Z,97.9
2024-03-15T05:08:42.590Z,97.9
2024-03-15T05:09:56.829Z,98
2024-03-15T05:11:11.068Z,98.1
2024-03-15T05:12:25.307Z,98
2024-03-15T05:13:39.546Z,98
2024-03-15T05:14:53.785Z,97.9
2024-03-15T05:16:08.024Z,97.8
2024-03-15T05:17:22.263Z,97.8
2024-03-15T05:18:36.502Z,97.7
2024-03-15T05:19:50.741Z,97.8
2024-03-15T05:21:03.996Z,97.8
2024-03-15T05:22:18.235Z,97.8
2024-03-15T05:23:32.474Z,97.9
2024-03-15T05:24:46.713Z,97.8
2024-03-15T05:26:00.952Z,97.9
2024-03-15T05:27:15.191Z,97.9
2024-03-15T05:28:29.430Z,97.7
2024-03-15T05:29:43.670Z,97.6
2024-03-15T05:30:57.909Z,97.6
2024-03-15T05:32:12.148Z,97.4
2024-03-15T05:33:26.387Z,97.3
2024-03-15T05:34:40.625Z,97.4
2024-03-15T05:35:54.864Z,97.4
2024-03-15T05:37:08.119Z,97.5
2024-03-15T05:38:22.358Z,97.7
2024-03-15T05:39:36.597Z,97.6
2024-03-15T05:40:50.837Z,97.7
2024-03-15T05:42:05.075Z,97.7
2024-03-15T05:43:19.315Z,97.6
2024-03-15T05:44:33.554Z,97.6
2024-03-15T05:45:47.793Z,97.6
2024-03-15T05:47:02.032Z,97.3
2024-03-15T05:48:16.271Z,96.2
2024-03-15T05:49:30.487Z,97.2
2024-03-15T05:50:44.749Z,97.2
2024-03-15T05:51:58.988Z,97.3
2024-03-15T05:53:12.244Z,97.4
2024-03-15T05:54:26.483Z,96.3
2024-03-15T05:55:40.722Z,97.2
2024-03-15T05:56:54.961Z,97.7
2024-03-15T05:58:09.200Z,97.8
2024-03-15T05:59:23.439Z,97.7
2024-03-15T06:00:37.678Z,97.7
2024-03-15T06:01:51.917Z,97.6
2024-03-15T06:03:06.156Z,97.5
2024-03-15T06:04:20.395Z,97.4
2024-03-15T06:05:34.634Z,97.4
2024-03-15T06:06:48.873Z,97.2
2024-03-15T06:08:03.111Z,97.3
2024-03-15T06:09:16.366Z,97.2
2024-03-15T06:10:30.605Z,97.2
2024-03-15T06:11:44.844Z,97.1
2024-03-15T06:12:59.083Z,97.1
2024-03-15T06:14:13.322Z,96.9
2024-03-15T06:15:27.561Z,96.9
2024-03-15T06:16:41.800Z,96.9
2024-03-15T06:17:56.039Z,96.7
2024-03-15T06:19:10.278Z,96.5
2024-03-15T06:20:24.517Z,96.4
2024-03-15T06:21:38.756Z,96.4
2024-03-15T06:22:52.995Z,96.2
2024-03-15T06:24:07.234Z,96.2
2024-03-15T06:25:20.489Z,96.2
2024-03-15T06:26:34.728Z,96
2024-03-15T06:27:48.967Z,95.8
2024-03-15T06:29:03.206Z,94.9
2024-03-15T06:30:17.445Z,94
2024-03-15T06:31:31.684Z,94.4
2024-03-15T06:32:45.923Z,95.2
2024-03-15T06:34:00.163Z,95.1
2024-03-15T06:35:14.402Z,94.5
2024-03-15T06:36:28.641Z,94.5
2024-03-15T06:37:42.880Z,95.3
2024-03-15T06:38:57.119Z,96
2024-03-15T06:40:11.358Z,96.4
2024-03-15T06:41:24.613Z,96.2
2024-03-15T06:42:38.852Z,96
2024-03-15T06:43:53.091Z,96
2024-03-15T06:45:07.332Z,95.8
2024-03-15T06:46:21.571Z,95.5
2024-03-15T06:47:35.810Z,95.3
2024-03-15T06:48:50.049Z,95.2
2024-03-15T06:50:04.000Z,95.2
2024-03-15T06:51:18.527Z,94.8
2024-03-15T06:52:32.766Z,94.6
2024-03-15T06:53:46.985Z,94.9
2024-03-15T06:55:01.244Z,94.5
2024-03-15T06:56:15.483Z,94.2
2024-03-15T06:57:28.738Z,93.7
2024-03-15T06:58:42.976Z,93.5
2024-03-15T06:59:57.215Z,93.9
2024-03-15T07:01:11.454Z,93.4
2024-03-15T07:02:25.693Z,93.3
2024-03-15T07:03:39.932Z,93.4
2024-03-15T07:04:54.171Z,93.4
2024-03-15T07:06:08.410Z,93.1
2024-03-15T07:07:22.649Z,93.2
2024-03-15T07:08:36.860Z,93.2
2024-03-15T07:09:51.127Z,93
2024-03-15T07:11:05.366Z,92.6
2024-03-15T07:12:19.605Z,92.5
2024-03-15T07:13:32.860Z,92.4
2024-03-15T07:14:47.099Z,92.2
2024-03-15T07:16:01.338Z,92.2
2024-03-15T07:17:15.577Z,92.2
2024-03-15T07:18:29.816Z,91.8
2024-03-15T07:19:44.055Z,91.7
2024-03-15T07:20:58.294Z,91.5
2024-03-15T07:22:12.533Z,91.8
2024-03-15T07:23:26.772Z,91.8
2024-03-15T07:24:41.011Z,92
2024-03-15T07:25:55.250Z,91.8
2024-03-15T07:27:09.489Z,92
2024-03-15T07:28:23.728Z,92
2024-03-15T07:29:36.983Z,91.9
2024-03-15T07:30:51.222Z,92.2
2024-03-15T07:32:05.461Z,92
2024-03-15T07:33:19.700Z,92.4
2024-03-15T07:34:33.939Z,92.5
2024-03-15T07:35:48.178Z,92.5
2024-03-15T07:37:02.418Z,92.2
2024-03-15T07:38:16.657Z,92
2024-03-15T07:39:30.896Z,92.2
2024-03-15T07:40:45.135Z,91.8
2024-03-15T07:41:59.374Z,91.9
2024-03-15T07:43:13.614Z,91.5
2024-03-15T07:44:27.853Z,91.8
2024-03-15T07:45:41.109Z,91.7
2024-03-15T07:46:55.348Z,92
2024-03-15T07:48:09.587Z,91.4
2024-03-15T07:49:23.826Z,91.3
2024-03-15T07:50:38.065Z,90.9
2024-03-15T07:51:52.304Z,90.9
2024-03-15T07:53:06.543Z,90.9
2024-03-15T07:54:20.782Z,90.4
2024-03-15T07:55:35.022Z,90.3
2024-03-15T07:56:49.261Z,90.6
2024-03-15T07:58:03.500Z,90.4
2024-03-15T07:59:17.739Z,90.3
2024-03-15T08:00:31.978Z,90.3
2024-03-15T08:01:45.233Z,90.3
2024-03-15T08:02:59.473Z,90.2
2024-03-15T08:04:13.712Z,90.2
2024-03-15T08:05:27.951Z,89.8
2024-03-15T08:06:42.190Z,90.7
2024-03-15T08:07:56.430Z,90.9
2024-03-15T08:09:10.669Z,90.2
2024-03-15T08:10:24.908Z,90.1
2024-03-15T08:11:39.147Z,90
2024-03-15T08:12:53.386Z,89.9
2024-03-15T08:14:07.625Z,89.6
2024-03-15T08:15:21.864Z,89.7
2024-03-15T08:16:36.103Z,89
2024-03-15T08:17:49.359Z,88.9
2024-03-15T08:19:03.598Z,88.7
2024-03-15T08:20:17.837Z,87.9
2024-03-15T08:21:32.076Z,88.1
2024-03-15T08:22:46.315Z,87.8
2024-03-15T08:24:00.554Z,87.4
2024-03-15T08:25:13.814Z,86.5
2024-03-15T08:26:28.053Z,85.8
2024-03-15T08:27:42.293Z,86.4
2024-03-15T08:28:56.533Z,86
2024-03-15T08:30:10.772Z,86.3
2024-03-15T08:31:25.011Z,85.5
2024-03-15T08:32:39.251Z,86
2024-03-15T08:33:53.490Z,85.8
2024-03-15T08:35:07.729Z,84.8
2024-03-15T08:36:21.968Z,85.2
2024-03-15T08:37:36.208Z,84.2
2024-03-15T08:38:50.447Z,85.1
2024-03-15T08:40:04.686Z,83.9
2024-03-15T08:41:19.047Z,83.6
2024-03-15T08:42:33.285Z,84.4
2024-03-15T08:43:47.524Z,83.6
2024-03-15T08:45:01.764Z,83.9
2024-03-15T08:46:16.003Z,84
2024-03-15T08:47:30.241Z,83.7
2024-03-15T08:48:44.480Z,83.8
2024-03-15T08:49:58.719Z,84.6
2024-03-15T08:51:12.958Z,83.8
2024-03-15T08:52:27.196Z,84
2024-03-15T08:53:41.435Z,83.7
2024-03-15T08:54:55.674Z,83.9
2024-03-15T08:56:09.912Z,83.8
2024-03-15T08:57:23.167Z,82.7
2024-03-15T08:58:37.406Z,83.6
2024-03-15T08:59:51.645Z,83.2
2024-03-15T09:01:05.883Z,82.6
2024-03-15T09:02:20.122Z,82.4
2024-03-15T09:03:34.360Z,82.1
2024-03-15T09:04:48.600Z,83.4
2024-03-15T09:06:02.839Z,82.3
2024-03-15T09:07:17.077Z,81.5
2024-03-15T09:08:31.316Z,81.5
2024-03-15T09:09:45.554Z,82
2024-03-15T09:10:59.793Z,79.3
2024-03-15T09:12:14.032Z,79.3
2024-03-15T09:13:27.286Z,80.4
2024-03-15T09:14:41.525Z,79.5
2024-03-15T09:15:55.764Z,79.9
2024-03-15T09:17:10.002Z,79.4
2024-03-15T09:18:24.241Z,79.2
2024-03-15T09:19:38.479Z,78.8
2024-03-15T09:20:52.718Z,78.4
2024-03-15T09:22:06.957Z,77.3
2024-03-15T09:23:21.196Z,77.4
2024-03-15T09:24:35.434Z,76.5
2024-03-15T09:25:49.674Z,76.1
2024-03-15T09:27:03.912Z,76.6
2024-03-15T09:28:18.151Z,76.6
2024-03-15T09:29:31.406Z,76.1
2024-03-15T09:30:45.645Z,75.6
2024-03-15T09:31:59.884Z,76.9
2024-03-15T09:33:14.123Z,76.8
2024-03-15T09:34:28.362Z,76.1
2024-03-15T09:35:42.602Z,76
2024-03-15T09:36:56.841Z,74.3
2024-03-15T09:38:11.079Z,73.8
2024-03-15T09:39:25.318Z,75.2
2024-03-15T09:40:39.557Z,74.7
2024-03-15T09:41:53.795Z,73.7
2024-03-15T09:43:08.034Z,74.8
2024-03-15T09:44:22.273Z,74.4
2024-03-15T09:45:35.528Z,74.5
2024-03-15T09:46:49.767Z,75
2024-03-15T09:48:04.006Z,74.4
2024-03-15T09:49:18.245Z,74.8
2024-03-15T09:50:32.483Z,74
2024-03-15T09:51:46.722Z,73.9
2024-03-15T09:53:00.961Z,73.7
2024-03-15T09:54:15.200Z,72.2
2024-03-15T09:55:29.439Z,73.2
2024-03-15T09:56:43.678Z,72.8
2024-03-15T09:57:57.918Z,72.9
2024-03-15T09:59:12.157Z,72.7
2024-03-15T10:00:26.396Z,73.4
2024-03-15T10:01:39.651Z,72.5
2024-03-15T10:02:53.890Z,72.8
2024-03-15T10:04:08.129Z,73
2024-03-15T10:05:22.368Z,71.9
2024-03-15T10:06:36.607Z,72.1
2024-03-15T10:07:50.845Z,72.1
2024-03-15T10:09:05.084Z,70.9
2024-03-15T10:10:19.323Z,71.2
2024-03-15T10:11:33.561Z,71.7
2024-03-15T10:12:47.800Z,70
2024-03-15T10:14:02.039Z,69.3
2024-03-15T10:15:16.278Z,69.5
2024-03-15T10:16:30.517Z,70.1
2024-03-15T10:17:43.747Z,70.4
2024-03-15T10:18:58.011Z,70.3
2024-03-15T10:20:12.250Z,71
2024-03-15T10:21:26.475Z,68.8
2024-03-15T10:22:40.728Z,68.9
2024-03-15T10:23:54.967Z,68.8
2024-03-15T10:25:09.206Z,68.6
2024-03-15T10:26:23.429Z,66.1
2024-03-15T10:27:37.684Z,68.2
2024-03-15T10:28:51.894Z,68
2024-03-15T10:30:06.162Z,68.1
2024-03-15T10:31:20.401Z,67.3
2024-03-15T10:32:34.640Z,68
2024-03-15T10:33:47.896Z,65.4
2024-03-15T10:35:02.135Z,65.6
2024-03-15T10:36:16.355Z,66.1
2024-03-15T10:37:30.613Z,64.5
2024-03-15T10:38:44.852Z,64.5
2024-03-15T10:39:59.091Z,65
2024-03-15T10:42:27.570Z,66.3
2024-03-15T10:44:56.048Z,65.9
2024-03-15T10:46:10.287Z,63.6
2024-03-15T10:47:24.526Z,65
2024-03-15T10:48:38.766Z,65
2024-03-15T10:49:52.022Z,63.6
2024-03-15T10:51:06.261Z,65
2024-03-15T10:52:20.501Z,65.6
2024-03-15T10:53:34.740Z,64.2
2024-03-15T10:54:48.979Z,65.9
2024-03-15T10:56:03.218Z,65
2024-03-15T10:57:17.457Z,65.6
2024-03-15T10:58:31.683Z,65.4
2024-03-15T10:59:45.935Z,66.5
2024-03-15T11:01:00.174Z,66.5
2024-03-15T11:02:14.413Z,66.7
2024-03-15T11:03:28.652Z,66.7
2024-03-15T11:04:42.891Z,66.9
2024-03-15T11:05:56.146Z,67.6
2024-03-15T11:07:10.384Z,66.9
2024-03-15T11:08:24.623Z,67.2
2024-03-15T11:09:38.862Z,67.9
2024-03-15T11:10:53.101Z,66.5
2024-03-15T11:12:07.340Z,67.5
2024-03-15T11:13:21.579Z,66.2
2024-03-15T11:14:35.818Z,66.9
2024-03-15T11:15:50.056Z,66.5
2024-03-15T11:17:04.295Z,66.5
2024-03-15T11:18:18.534Z,65
2024-03-15T11:19:32.773Z,66
2024-03-15T11:20:46.985Z,65.5
2024-03-15T11:22:00.267Z,66.4
2024-03-15T11:23:14.505Z,68
2024-03-15T11:24:28.744Z,65.6
2024-03-15T11:25:42.983Z,65.1
2024-03-15T11:26:57.222Z,65.7
2024-03-15T11:28:11.460Z,65.9
2024-03-15T11:29:25.699Z,66.2
2024-03-15T11:30:39.937Z,64.1
2024-03-15T11:31:54.176Z,64.5
2024-03-15T11:33:08.414Z,65
2024-03-15T11:34:22.653Z,63.1
2024-03-15T11:35:36.892Z,62.5
2024-03-15T11:36:51.130Z,62.7
2024-03-15T11:38:04.385Z,65.1
2024-03-15T11:39:18.624Z,63.2
2024-03-15T11:40:32.862Z,63
2024-03-15T11:41:47.101Z,63.5
2024-03-15T11:43:01.339Z,64.3
2024-03-15T11:44:15.578Z,62.5
2024-03-15T11:45:29.818Z,63.6
2024-03-15T11:46:44.056Z,61.5
2024-03-15T11:47:58.295Z,61.7
2024-03-15T11:49:12.534Z,62.2
2024-03-15T11:50:26.773Z,61.1
2024-03-15T11:51:41.011Z,61.9
2024-03-15T11:52:55.250Z,62
2024-03-15T11:54:08.505Z,60.8
2024-03-15T11:55:22.743Z,61.4
2024-03-15T11:56:36.982Z,60.7
2024-03-15T11:57:51.221Z,60.8
2024-03-15T11:59:05.460Z,61
2024-03-15T12:00:19.698Z,60.7
2024-03-15T12:01:33.937Z,62
2024-03-15T12:02:48.164Z,62.9
2024-03-15T12:04:02.414Z,63.4
2024-03-15T12:05:16.652Z,61.1
2024-03-15T12:06:30.891Z,61.3
2024-03-15T12:07:45.130Z,60.3
2024-03-15T12:08:59.368Z,59.5
2024-03-15T12:10:12.623Z,60.6
2024-03-15T12:11:26.861Z,60.2
2024-03-15T12:12:41.100Z,60.6
2024-03-15T12:13:55.338Z,60.5
2024-03-15T12:15:09.577Z,60.1
2024-03-15T12:16:23.815Z,61
2024-03-15T12:17:38.054Z,61.8
2024-03-15T12:18:52.293Z,62
2024-03-15T12:20:06.532Z,61.3
2024-03-15T12:21:20.770Z,62.2
2024-03-15T12:22:35.009Z,61.6
2024-03-15T12:23:49.247Z,59.7
2024-03-15T12:25:03.485Z,59.7
2024-03-15T12:26:16.740Z,59.4
2024-03-15T12:27:30.978Z,60.3
2024-03-15T12:28:45.217Z,61.3
2024-03-15T12:29:59.456Z,61.2
2024-03-15T12:31:13.695Z,61.9
2024-03-15T12:32:27.933Z,61.5
2024-03-15T12:33:41.193Z,61.1
2024-03-15T12:34:55.432Z,60.3
2024-03-15T12:36:09.671Z,61.3
2024-03-15T12:37:23.910Z,61.9
2024-03-15T12:38:38.149Z,62
2024-03-15T12:39:52.388Z,62.4
2024-03-15T12:41:06.627Z,63
2024-03-15T12:42:20.867Z,63.7
2024-03-15T12:43:35.106Z,62.9
2024-03-15T12:44:49.345Z,63.3
2024-03-15T12:46:03.584Z,63.8
2024-03-15T12:47:17.823Z,64.7
2024-03-15T12:48:32.062Z,64.5
2024-03-15T12:49:45.316Z,64.7
2024-03-15T12:50:59.557Z,65.1
2024-03-15T12:52:13.795Z,64.7
2024-03-15T12:53:28.034Z,65.2
2024-03-15T12:54:42.248Z,65.1
2024-03-15T12:55:56.512Z,64.4
2024-03-15T12:57:10.750Z,63.8
2024-03-15T12:58:24.989Z,64.3
2024-03-15T12:59:39.228Z,64.9
2024-03-15T13:00:53.467Z,65.3
2024-03-15T13:02:07.706Z,65.5
2024-03-15T13:03:21.945Z,65.2
2024-03-15T13:04:36.183Z,64.7
2024-03-15T13:05:49.438Z,65.7
2024-03-15T13:07:03.677Z,65.7
2024-03-15T13:08:17.916Z,66.7
2024-03-15T13:09:32.137Z,66.6
2024-03-15T13:10:46.393Z,67.4
2024-03-15T13:12:00.633Z,67.7
2024-03-15T13:13:14.871Z,69.1
2024-03-15T13:14:29.110Z,69.4
2024-03-15T13:15:43.349Z,69.1
2024-03-15T13:16:57.570Z,69.8
2024-03-15T13:18:11.827Z,70.2
2024-03-15T13:19:26.065Z,68.9
2024-03-15T13:20:40.304Z,69.2
2024-03-15T13:21:53.559Z,69.4
2024-03-15T13:23:07.798Z,68.6
2024-03-15T13:24:22.037Z,68.9
2024-03-15T13:25:36.276Z,69.2
2024-03-15T13:26:50.515Z,69.1
2024-03-15T13:28:04.753Z,69.2
2024-03-15T13:29:18.992Z,69.4
2024-03-15T13:30:33.231Z,68.9
2024-03-15T13:31:47.451Z,69.5
2024-03-15T13:33:01.709Z,69.3
2024-03-15T13:34:15.948Z,69.3
2024-03-15T13:35:30.187Z,69.7
2024-03-15T13:36:44.426Z,69.8
2024-03-15T13:37:57.680Z,70
2024-03-15T13:39:11.919Z,69.3
2024-03-15T13:40:26.158Z,69.6
2024-03-15T13:41:40.397Z,67.9
2024-03-15T13:42:54.636Z,68.1
2024-03-15T13:44:08.875Z,68.4
2024-03-15T13:45:23.114Z,67.4
2024-03-15T13:46:37.353Z,67.7
2024-03-15T13:47:51.591Z,67.4
2024-03-15T13:49:05.830Z,68.2
2024-03-15T13:50:20.069Z,67.7
2024-03-15T13:51:34.299Z,67.1
2024-03-15T13:52:48.546Z,65.7
2024-03-15T13:54:01.801Z,66.2
2024-03-15T13:55:16.040Z,66.2
2024-03-15T13:56:30.279Z,66.9
2024-03-15T13:57:44.499Z,66.8
2024-03-15T13:58:58.757Z,66.9
2024-03-15T14:00:12.995Z,67.3
2024-03-15T14:01:27.234Z,68
2024-03-15T14:02:41.473Z,68.1
2024-03-15T14:03:55.712Z,68.4
2024-03-15T14:05:09.951Z,68.9
2024-03-15T14:06:24.190Z,69.7
2024-03-15T14:07:38.428Z,69.2
2024-03-15T14:08:52.667Z,68.4
2024-03-15T14:10:05.922Z,67.8
2024-03-15T14:11:20.161Z,68.7
2024-03-15T14:12:34.400Z,68.6
2024-03-15T14:13:48.627Z,68.7
2024-03-15T14:15:02.877Z,68.4
2024-03-15T14:16:17.117Z,68.6
2024-03-15T14:17:31.355Z,69.1
2024-03-15T14:18:45.594Z,69
2024-03-15T14:19:59.833Z,68.7
2024-03-15T14:21:14.072Z,69.1
2024-03-15T14:22:28.311Z,68.6
2024-03-15T14:23:42.549Z,68
2024-03-15T14:24:56.788Z,68.2
2024-03-15T14:26:10.043Z,68.1
2024-03-15T14:27:24.282Z,67.9
2024-03-15T14:28:38.521Z,68
2024-03-15T14:29:52.760Z,67.7
2024-03-15T14:31:06.999Z,68
2024-03-15T14:32:21.238Z,68.2
2024-03-15T14:33:35.476Z,68.2
2024-03-15T14:34:49.715Z,67.6
2024-03-15T14:36:03.954Z,68.3
2024-03-15T14:37:18.193Z,67.7
2024-03-15T14:38:32.411Z,68.4
2024-03-15T14:39:46.670Z,68.6
2024-03-15T14:41:00.909Z,68.2
2024-03-15T14:42:14.164Z,68.4
2024-03-15T14:43:28.403Z,68
2024-03-15T14:44:42.642Z,68.3
2024-03-15T14:45:56.880Z,68.8
2024-03-15T14:47:11.119Z,69.2
2024-03-15T14:48:25.358Z,69.1
2024-03-15T14:49:39.597Z,69.8
2024-03-15T14:50:53.836Z,70
2024-03-15T14:52:08.075Z,69
2024-03-15T14:53:22.313Z,67.3
2024-03-15T14:54:36.552Z,67.5
2024-03-15T14:55:50.791Z,67.3
2024-03-15T14:57:05.030Z,67.2
2024-03-15T14:58:18.285Z,66.7
2024-03-15T14:59:32.524Z,67
2024-03-15T15:00:46.762Z,67.7
2024-03-15T15:02:01.001Z,67.8
2024-03-15T15:03:15.240Z,68.5
2024-03-15T15:04:29.479Z,68.9
2024-03-15T15:05:43.717Z,68.6
2024-03-15T15:06:57.956Z,68.3
2024-03-15T15:08:12.171Z,67.7
2024-03-15T15:09:26.434Z,68.2
2024-03-15T15:10:40.673Z,68.4
2024-03-15T15:11:54.912Z,68.1
2024-03-15T15:13:09.151Z,67.7
2024-03-15T15:14:22.406Z,67.7
2024-03-15T15:15:36.646Z,67.4
2024-03-15T15:16:50.885Z,67.6
2024-03-15T15:18:05.123Z,68
2024-03-15T15:19:19.362Z,68.1
2024-03-15T15:20:33.601Z,68.1
2024-03-15T15:21:47.840Z,68.6
2024-03-15T15:23:02.079Z,67.8
2024-03-15T15:24:16.318Z,66.8
2024-03-15T15:25:30.557Z,67.3
2024-03-15T15:26:44.796Z,67.5
2024-03-15T15:27:59.035Z,68
2024-03-15T15:29:13.273Z,68.5
2024-03-15T15:30:26.528Z,68.6
2024-03-15T15:31:40.767Z,69.2
2024-03-15T15:32:55.006Z,70
2024-03-15T15:34:09.245Z,70
2024-03-15T15:35:23.484Z,70.5
2024-03-15T15:36:37.722Z,71.1
2024-03-15T15:37:51.961Z,71.3
2024-03-15T15:39:06.200Z,72
2024-03-15T15:40:20.439Z,71.9
2024-03-15T15:41:34.678Z,72.3
2024-03-15T15:42:48.917Z,71.4
2024-03-15T15:44:03.155Z,71.7
2024-03-15T15:45:17.394Z,71.2
2024-03-15T15:46:30.649Z,70.2
2024-03-15T15:47:44.888Z,70.5
2024-03-15T15:48:59.127Z,70.8
2024-03-15T15:50:13.365Z,70
2024-03-15T15:51:27.604Z,70.3
2024-03-15T15:52:41.843Z,69.7
2024-03-15T15:53:56.082Z,69.2
2024-03-15T15:55:10.321Z,69.6
2024-03-15T15:56:24.560Z,69.9
2024-03-15T15:57:38.798Z,69.8
2024-03-15T15:58:53.037Z,69.5
2024-03-15T16:00:07.276Z,70.1
2024-03-15T16:01:21.515Z,70.1
2024-03-15T16:02:34.769Z,70.7
2024-03-15T16:03:49.009Z,71
2024-03-15T16:05:03.247Z,71.1
2024-03-15T16:06:17.486Z,70.9
2024-03-15T16:07:31.726Z,70.8
2024-03-15T16:08:45.965Z,71.2
2024-03-15T16:10:00.203Z,71
2024-03-15T16:11:14.442Z,71.6
2024-03-15T16:12:28.681Z,71.9
2024-03-15T16:13:42.920Z,71.8
2024-03-15T16:14:57.142Z,72.6
2024-03-15T16:16:11.399Z,72.4
2024-03-15T16:17:25.637Z,72.5
2024-03-15T16:18:38.892Z,72.6
2024-03-15T16:19:53.132Z,72.9
2024-03-15T16:21:07.371Z,73.3
2024-03-15T16:22:21.610Z,73.4
2024-03-15T16:23:35.850Z,73.3
2024-03-15T16:24:50.089Z,73.3
2024-03-15T16:26:04.328Z,74.1
2024-03-15T16:27:18.567Z,73.5
2024-03-15T16:28:32.805Z,73.4
2024-03-15T16:29:47.044Z,73.5
2024-03-15T16:31:01.283Z,73.3
2024-03-15T16:32:15.522Z,73.4
2024-03-15T16:33:29.760Z,73.7
2024-03-15T16:34:43.015Z,73.5
2024-03-15T16:35:57.254Z,73.8
2024-03-15T16:37:11.493Z,73.7
2024-03-15T16:38:25.732Z,73.6
2024-03-15T16:39:39.954Z,73.9
2024-03-15T16:40:54.210Z,74
2024-03-15T16:42:07.470Z,73.9
2024-03-15T16:43:21.708Z,74